createdAt,value
2023-04-07T00:00:48.511Z,5.75
2023-04-07T00:01:48.536Z,5.74
2023-04-07T00:02:48.569Z,5.75
2023-04-07T00:03:48.618Z,5.75
2023-04-07T00:04:48.546Z,5.72
2023-04-07T00:05:48.480Z,5.74
2023-04-07T00:06:48.488Z,5.71
2023-04-07T00:07:55.943Z,5.67
2023-04-07T00:08:49.484Z,5.65
2023-04-07T00:09:48.470Z,5.61
2023-04-07T00:10:48.411Z,5.61
2023-04-07T00:11:48.418Z,5.58
2023-04-07T00:12:48.430Z,5.60
2023-04-07T00:13:48.387Z,5.60
2023-04-07T00:14:48.368Z,5.60
2023-04-07T00:15:48.444Z,5.61
2023-04-07T00:16:49.035Z,5.61
2023-04-07T00:17:48.387Z,5.60
2023-04-07T00:18:48.342Z,5.63
2023-04-07T00:19:48.340Z,5.64
2023-04-07T00:20:48.302Z,5.64
2023-04-07T00:21:48.378Z,5.67
2023-04-07T00:22:48.287Z,5.65
2023-04-07T00:23:48.361Z,5.64
2023-04-07T00:24:48.366Z,5.63
2023-04-07T00:25:48.248Z,5.61
2023-04-07T00:26:48.301Z,5.61
2023-04-07T00:27:48.228Z,5.58
2023-04-07T00:28:48.244Z,5.60
2023-04-07T00:29:48.234Z,5.58
2023-04-07T00:30:48.234Z,5.58
2023-04-07T00:31:48.183Z,5.60
2023-04-07T00:32:48.216Z,5.58
2023-04-07T00:33:48.192Z,5.64
2023-04-07T00:34:48.169Z,5.63
2023-04-07T00:35:48.190Z,5.64
2023-04-07T00:36:48.150Z,5.63
2023-04-07T00:37:48.150Z,5.60
2023-04-07T00:38:48.154Z,5.58
2023-04-07T00:39:48.110Z,5.60
2023-04-07T00:40:48.086Z,5.60
2023-04-07T00:41:48.086Z,5.57
2023-04-07T00:42:48.076Z,5.58
2023-04-07T00:43:48.117Z,5.57
2023-04-07T00:44:48.061Z,5.58
2023-04-07T00:45:48.040Z,5.56
2023-04-07T00:46:48.146Z,5.53
2023-04-07T00:47:48.018Z,5.54
2023-04-07T00:48:48.117Z,5.51
2023-04-07T00:49:48.006Z,5.53
2023-04-07T00:50:47.998Z,5.51
2023-04-07T00:51:47.982Z,5.54
2023-04-07T00:52:47.955Z,5.53
2023-04-07T00:53:47.963Z,5.53
2023-04-07T00:54:47.954Z,5.51
2023-04-07T00:55:47.962Z,5.48
2023-04-07T00:56:47.964Z,5.49
2023-04-07T00:57:47.896Z,5.48
2023-04-07T00:58:47.926Z,5.48
2023-04-07T00:59:47.902Z,5.46
2023-04-07T01:00:47.864Z,5.46
2023-04-07T01:01:47.938Z,5.46
2023-04-07T01:02:47.975Z,5.46
2023-04-07T01:03:48.109Z,5.46
2023-04-07T01:04:48.059Z,5.49
2023-04-07T01:05:47.908Z,5.49
2023-04-07T01:06:47.820Z,5.48
2023-04-07T01:07:47.835Z,5.45
2023-04-07T01:08:47.817Z,5.45
2023-04-07T01:09:47.808Z,5.42
2023-04-07T01:10:47.782Z,5.42
2023-04-07T01:11:47.768Z,5.42
2023-04-07T01:12:47.741Z,5.43
2023-04-07T01:13:47.757Z,5.42
2023-04-07T01:14:47.763Z,5.42
2023-04-07T01:15:47.776Z,5.43
2023-04-07T01:16:47.710Z,5.43
2023-04-07T01:17:47.757Z,5.42
2023-04-07T01:18:47.797Z,5.40
2023-04-07T01:19:47.726Z,5.40
2023-04-07T01:20:47.662Z,5.39
2023-04-07T01:21:47.682Z,5.38
2023-04-07T01:22:47.706Z,5.39
2023-04-07T01:23:47.648Z,5.36
2023-04-07T01:24:47.623Z,5.36
2023-04-07T01:25:47.648Z,5.38
2023-04-07T01:26:47.604Z,5.35
2023-04-07T01:27:47.728Z,5.33
2023-04-07T01:28:47.572Z,5.35
2023-04-07T01:29:47.601Z,5.35
2023-04-07T01:30:47.556Z,5.38
2023-04-07T01:31:47.572Z,5.33
2023-04-07T01:32:47.584Z,5.33
2023-04-07T01:33:47.540Z,5.31
2023-04-07T01:34:47.553Z,5.33
2023-04-07T01:35:47.511Z,5.30
2023-04-07T01:36:47.553Z,5.28
2023-04-07T01:37:47.569Z,5.27
2023-04-07T01:38:47.485Z,5.27
2023-04-07T01:39:47.462Z,5.25
2023-04-07T01:40:47.461Z,5.22
2023-04-07T01:41:47.506Z,5.22
2023-04-07T01:42:47.514Z,5.21
2023-04-07T01:43:47.442Z,5.18
2023-04-07T01:44:47.439Z,5.20
2023-04-07T01:45:47.408Z,5.20
2023-04-07T01:46:47.406Z,5.18
2023-04-07T01:47:47.447Z,5.15
2023-04-07T01:48:47.367Z,5.18
2023-04-07T01:49:47.362Z,5.15
2023-04-07T01:50:47.355Z,5.15
2023-04-07T01:51:47.379Z,5.13
2023-04-07T01:52:47.382Z,5.09
2023-04-07T01:53:47.334Z,5.07
2023-04-07T01:54:47.378Z,5.07
2023-04-07T01:55:47.300Z,5.04
2023-04-07T01:56:47.287Z,5.06
2023-04-07T01:57:47.299Z,5.03
2023-04-07T01:58:47.281Z,5.03
2023-04-07T01:59:47.248Z,5.03
2023-04-07T02:00:47.322Z,5.00
2023-04-07T02:01:47.407Z,5.00
2023-04-07T02:02:47.384Z,5.02
2023-04-07T02:03:47.306Z,4.99
2023-04-07T02:04:47.200Z,4.97
2023-04-07T02:05:47.190Z,4.96
2023-04-07T02:06:47.246Z,4.96
2023-04-07T02:07:47.198Z,4.94
2023-04-07T02:08:47.192Z,4.91
2023-04-07T02:09:47.156Z,4.91
2023-04-07T02:10:47.147Z,4.91
2023-04-07T02:11:47.165Z,4.89
2023-04-07T02:12:47.129Z,4.88
2023-04-07T02:13:47.152Z,4.86
2023-04-07T02:14:47.107Z,4.85
2023-04-07T02:15:47.122Z,4.82
2023-04-07T02:16:48.866Z,4.84
2023-04-07T02:17:47.136Z,4.78
2023-04-07T02:18:47.107Z,4.80
2023-04-07T02:19:47.035Z,4.78
2023-04-07T02:20:47.034Z,4.77
2023-04-07T02:21:47.042Z,4.77
2023-04-07T02:22:47.092Z,4.75
2023-04-07T02:23:46.998Z,4.75
2023-04-07T02:24:47.007Z,4.73
2023-04-07T02:25:46.994Z,4.72
2023-04-07T02:26:46.998Z,4.70
2023-04-07T02:27:47.016Z,4.70
2023-04-07T02:28:46.969Z,4.70
2023-04-07T02:29:46.939Z,4.69
2023-04-07T02:30:46.920Z,4.67
2023-04-07T02:31:47.070Z,4.67
2023-04-07T02:32:46.987Z,4.67
2023-04-07T02:33:46.941Z,4.67
2023-04-07T02:34:46.906Z,4.66
2023-04-07T02:35:46.979Z,4.66
2023-04-07T02:36:46.877Z,4.67
2023-04-07T02:37:46.896Z,4.66
2023-04-07T02:38:46.880Z,4.65
2023-04-07T02:39:46.840Z,4.65
2023-04-07T02:40:46.838Z,4.65
2023-04-07T02:41:46.839Z,4.62
2023-04-07T02:42:46.827Z,4.60
2023-04-07T02:43:46.823Z,4.62
2023-04-07T02:44:46.813Z,4.62
2023-04-07T02:45:46.909Z,4.62
2023-04-07T02:46:46.774Z,4.63
2023-04-07T02:47:46.799Z,4.63
2023-04-07T02:48:46.779Z,4.65
2023-04-07T02:49:46.758Z,4.63
2023-04-07T02:50:46.711Z,4.65
2023-04-07T02:51:46.713Z,4.63
2023-04-07T02:52:46.720Z,4.62
2023-04-07T02:53:46.704Z,4.62
2023-04-07T02:54:46.664Z,4.62
2023-04-07T02:55:46.697Z,4.59
2023-04-07T02:56:46.732Z,4.60
2023-04-07T02:57:46.656Z,4.59
2023-04-07T02:58:46.662Z,4.58
2023-04-07T02:59:46.618Z,4.58
2023-04-07T03:00:46.886Z,4.58
2023-04-07T03:01:46.701Z,4.54
2023-04-07T03:02:46.824Z,4.52
2023-04-07T03:03:46.689Z,4.52
2023-04-07T03:04:46.584Z,4.54
2023-04-07T03:05:46.589Z,4.51
2023-04-07T03:06:46.555Z,4.52
2023-04-07T03:07:46.589Z,4.51
2023-04-07T03:08:46.550Z,4.51
2023-04-07T03:09:46.593Z,4.51
2023-04-07T03:10:46.521Z,4.50
2023-04-07T03:11:46.483Z,4.48
2023-04-07T03:12:46.496Z,4.51
2023-04-07T03:13:46.489Z,4.51
2023-04-07T03:14:46.474Z,4.51
2023-04-07T03:15:46.511Z,4.48
2023-04-07T03:16:46.498Z,4.51
2023-04-07T03:17:46.531Z,4.51
2023-04-07T03:18:46.476Z,4.51
2023-04-07T03:19:46.433Z,4.52
2023-04-07T03:20:46.431Z,4.51
2023-04-07T03:21:46.434Z,4.52
2023-04-07T03:22:46.461Z,4.54
2023-04-07T03:23:46.400Z,4.54
2023-04-07T03:24:46.393Z,4.54
2023-04-07T03:25:47.578Z,4.52
2023-04-07T03:26:46.367Z,4.52
2023-04-07T03:27:46.336Z,4.50
2023-04-07T03:28:46.372Z,4.50
2023-04-07T03:29:46.333Z,4.48
2023-04-07T03:30:46.327Z,4.48
2023-04-07T03:31:46.319Z,4.48
2023-04-07T03:32:46.317Z,4.50
2023-04-07T03:33:46.277Z,4.50
2023-04-07T03:34:46.282Z,4.50
2023-04-07T03:35:46.317Z,4.50
2023-04-07T03:36:46.250Z,4.52
2023-04-07T03:37:46.230Z,4.51
2023-04-07T03:38:46.233Z,4.51
2023-04-07T03:39:46.238Z,4.51
2023-04-07T03:40:46.246Z,4.51
2023-04-07T03:41:46.197Z,4.52
2023-04-07T03:42:46.207Z,4.54
2023-04-07T03:43:46.212Z,4.52
2023-04-07T03:44:46.166Z,4.55
2023-04-07T03:45:46.172Z,4.54
2023-04-07T03:46:46.283Z,4.54
2023-04-07T03:47:46.168Z,4.51
2023-04-07T03:48:46.172Z,4.51
2023-04-07T03:49:46.124Z,4.51
2023-04-07T03:50:46.104Z,4.52
2023-04-07T03:51:46.048Z,4.52
2023-04-07T03:52:46.114Z,4.54
2023-04-07T03:53:46.102Z,4.54
2023-04-07T03:54:46.087Z,4.54
2023-04-07T03:55:46.052Z,4.55
2023-04-07T03:56:45.977Z,4.55
2023-04-07T03:57:46.023Z,4.54
2023-04-07T03:58:45.989Z,4.54
2023-04-07T03:59:45.989Z,4.55
2023-04-07T04:00:45.966Z,4.55
2023-04-07T04:01:45.972Z,4.55
2023-04-07T04:02:45.966Z,4.54
2023-04-07T04:03:46.049Z,4.55
2023-04-07T04:04:46.004Z,4.54
2023-04-07T04:05:45.922Z,4.54
2023-04-07T04:06:45.870Z,4.52
2023-04-07T04:07:45.850Z,4.51
2023-04-07T04:08:45.906Z,4.52
2023-04-07T04:09:45.887Z,4.54
2023-04-07T04:10:45.847Z,4.54
2023-04-07T04:11:45.838Z,4.54
2023-04-07T04:12:45.843Z,4.55
2023-04-07T04:13:45.862Z,4.59
2023-04-07T04:14:45.811Z,4.58
2023-04-07T04:15:45.819Z,4.60
2023-04-07T04:16:45.811Z,4.60
2023-04-07T04:17:45.821Z,4.60
2023-04-07T04:18:45.768Z,4.60
2023-04-07T04:19:45.750Z,4.62
2023-04-07T04:20:45.744Z,4.63
2023-04-07T04:21:45.775Z,4.63
2023-04-07T04:22:45.741Z,4.65
2023-04-07T04:23:45.702Z,4.63
2023-04-07T04:24:45.719Z,4.67
2023-04-07T04:25:45.760Z,4.69
2023-04-07T04:26:45.710Z,4.67
2023-04-07T04:27:45.688Z,4.70
2023-04-07T04:28:45.680Z,4.75
2023-04-07T04:29:45.658Z,4.73
2023-04-07T04:30:45.622Z,4.73
2023-04-07T04:31:45.709Z,4.73
2023-04-07T04:32:45.642Z,4.75
2023-04-07T04:33:45.601Z,4.72
2023-04-07T04:34:45.587Z,4.75
2023-04-07T04:35:45.613Z,4.73
2023-04-07T04:36:45.616Z,4.73
2023-04-07T04:37:45.544Z,4.73
2023-04-07T04:38:45.600Z,4.72
2023-04-07T04:39:45.570Z,4.70
2023-04-07T04:40:45.504Z,4.69
2023-04-07T04:41:45.530Z,4.62
2023-04-07T04:42:45.542Z,4.55
2023-04-07T04:43:45.479Z,4.55
2023-04-07T04:44:45.537Z,4.54
2023-04-07T04:45:45.485Z,4.51
2023-04-07T04:46:45.537Z,4.42
2023-04-07T04:47:45.474Z,4.40
2023-04-07T04:48:45.442Z,4.29
2023-04-07T04:49:45.408Z,4.30
2023-04-07T04:50:45.442Z,4.27
2023-04-07T04:51:45.446Z,4.26
2023-04-07T04:52:45.404Z,4.24
2023-04-07T04:53:45.376Z,4.29
2023-04-07T04:54:45.372Z,4.23
2023-04-07T04:55:45.401Z,4.20
2023-04-07T04:56:45.387Z,4.18
2023-04-07T04:57:45.427Z,4.20
2023-04-07T04:58:45.323Z,4.23
2023-04-07T04:59:45.309Z,4.29
2023-04-07T05:00:45.438Z,4.33
2023-04-07T05:01:45.426Z,4.37
2023-04-07T05:02:45.541Z,4.41
2023-04-07T05:03:45.371Z,4.42
2023-04-07T05:04:45.547Z,4.44
2023-04-07T05:05:45.323Z,4.40
2023-04-07T05:06:45.339Z,4.41
2023-04-07T05:07:45.348Z,4.44
2023-04-07T05:08:45.263Z,4.47
2023-04-07T05:09:45.201Z,4.51
2023-04-07T05:10:46.687Z,4.58
2023-04-07T05:11:45.277Z,4.60
2023-04-07T05:12:45.290Z,4.62
2023-04-07T05:13:46.010Z,4.65
2023-04-07T05:14:45.220Z,4.60
2023-04-07T05:15:45.203Z,4.63
2023-04-07T05:16:45.186Z,4.67
2023-04-07T05:17:45.175Z,4.69
2023-04-07T05:18:45.135Z,4.58
2023-04-07T05:19:45.315Z,4.60
2023-04-07T05:20:45.215Z,4.66
2023-04-07T05:21:45.153Z,4.70
2023-04-07T05:22:45.121Z,4.78
2023-04-07T05:23:45.110Z,4.85
2023-04-07T05:24:45.077Z,4.91
2023-04-07T05:25:45.103Z,4.92
2023-04-07T05:26:45.086Z,4.92
2023-04-07T05:27:45.032Z,4.89
2023-04-07T05:28:45.039Z,4.86
2023-04-07T05:29:45.051Z,4.75
2023-04-07T05:30:45.006Z,4.69
2023-04-07T05:31:45.065Z,4.73
2023-04-07T05:32:45.045Z,4.82
2023-04-07T05:33:44.950Z,4.75
2023-04-07T05:34:44.966Z,4.84
2023-04-07T05:35:45.014Z,4.85
2023-04-07T05:36:44.965Z,4.91
2023-04-07T05:37:44.944Z,4.99
2023-04-07T05:38:45.049Z,5.04
2023-04-07T05:39:44.964Z,5.00
2023-04-07T05:40:44.897Z,5.03
2023-04-07T05:41:44.934Z,5.09
2023-04-07T05:42:44.891Z,5.13
2023-04-07T05:43:44.875Z,5.20
2023-04-07T05:44:44.895Z,5.21
2023-04-07T05:45:44.936Z,5.27
2023-04-07T05:46:44.829Z,5.24
2023-04-07T05:47:44.861Z,5.27
2023-04-07T05:48:44.797Z,5.24
2023-04-07T05:49:44.840Z,5.24
2023-04-07T05:50:44.795Z,5.17
2023-04-07T05:51:45.850Z,5.12
2023-04-07T05:52:44.791Z,5.10
2023-04-07T05:53:44.777Z,5.12
2023-04-07T05:54:44.795Z,5.09
2023-04-07T05:55:44.743Z,5.10
2023-04-07T05:56:44.763Z,5.13
2023-04-07T05:57:44.714Z,5.12
2023-04-07T05:58:44.778Z,5.10
2023-04-07T05:59:44.816Z,5.09
2023-04-07T06:00:44.673Z,5.12
2023-04-07T06:01:44.766Z,5.10
2023-04-07T06:02:44.820Z,5.06
2023-04-07T06:03:44.781Z,5.06
2023-04-07T06:04:44.629Z,5.07
2023-04-07T06:05:44.707Z,5.06
2023-04-07T06:06:44.765Z,5.09
2023-04-07T06:07:44.599Z,5.12
2023-04-07T06:08:44.626Z,5.04
2023-04-07T06:09:44.629Z,4.94
2023-04-07T06:10:44.642Z,4.88
2023-04-07T06:11:44.563Z,4.91
2023-04-07T06:12:44.658Z,4.86
2023-04-07T06:13:44.569Z,4.84
2023-04-07T06:14:44.579Z,4.86
2023-04-07T06:15:44.550Z,4.94
2023-04-07T06:16:44.572Z,4.96
2023-04-07T06:17:44.552Z,5.00
2023-04-07T06:18:44.545Z,5.09
2023-04-07T06:19:44.475Z,5.13
2023-04-07T06:20:44.500Z,5.18
2023-04-07T06:21:44.540Z,5.15
2023-04-07T06:22:44.458Z,5.13
2023-04-07T06:23:44.442Z,5.13
2023-04-07T06:24:44.467Z,5.17
2023-04-07T06:25:44.432Z,5.21
2023-04-07T06:26:44.442Z,5.18
2023-04-07T06:27:44.388Z,5.15
2023-04-07T06:28:44.385Z,5.09
2023-04-07T06:29:44.505Z,5.10
2023-04-07T06:30:44.453Z,5.18
2023-04-07T06:31:44.376Z,5.22
2023-04-07T06:32:44.419Z,5.27
2023-04-07T06:33:44.337Z,5.25
2023-04-07T06:34:44.314Z,5.25
2023-04-07T06:35:44.335Z,5.27
2023-04-07T06:36:45.326Z,5.27
2023-04-07T06:37:46.193Z,5.24
2023-04-07T06:38:44.320Z,5.28
2023-04-07T06:39:44.357Z,5.30
2023-04-07T06:40:44.282Z,5.35
2023-04-07T06:41:45.183Z,5.33
2023-04-07T06:42:44.286Z,5.38
2023-04-07T06:43:44.252Z,5.30
2023-04-07T06:44:44.220Z,5.21
2023-04-07T06:45:44.272Z,5.22
2023-04-07T06:46:44.484Z,5.27
2023-04-07T06:47:44.209Z,5.40
2023-04-07T06:48:44.506Z,5.33
2023-04-07T06:49:44.175Z,5.28
2023-04-07T06:50:44.179Z,5.27
2023-04-07T06:51:44.382Z,5.31
2023-04-07T06:52:44.215Z,5.40
2023-04-07T06:53:44.157Z,5.45
2023-04-07T06:54:44.157Z,5.46
2023-04-07T06:55:44.135Z,5.49
2023-04-07T06:56:44.127Z,5.49
2023-04-07T06:57:44.168Z,5.56
2023-04-07T06:58:44.094Z,5.56
2023-04-07T06:59:44.115Z,5.56
2023-04-07T07:00:44.077Z,5.56
2023-04-07T07:01:44.328Z,5.54
2023-04-07T07:02:44.110Z,5.54
2023-04-07T07:03:44.139Z,5.54
2023-04-07T07:04:44.076Z,5.49
2023-04-07T07:05:44.026Z,5.53
2023-04-07T07:06:44.223Z,5.46
2023-04-07T07:07:44.541Z,5.43
2023-04-07T07:08:43.974Z,5.49
2023-04-07T07:09:43.952Z,5.53
2023-04-07T07:10:43.937Z,5.57
2023-04-07T07:11:44.204Z,5.56
2023-04-07T07:12:43.970Z,5.57
2023-04-07T07:13:43.911Z,5.63
2023-04-07T07:14:43.985Z,5.61
2023-04-07T07:15:44.011Z,5.64
2023-04-07T07:16:43.917Z,5.68
2023-04-07T07:17:44.149Z,5.74
2023-04-07T07:18:43.992Z,5.76
2023-04-07T07:19:43.867Z,5.75
2023-04-07T07:20:43.881Z,5.78
2023-04-07T07:21:43.877Z,5.78
2023-04-07T07:22:43.969Z,5.82
2023-04-07T07:23:43.917Z,5.82
2023-04-07T07:24:44.651Z,5.85
2023-04-07T07:25:43.899Z,5.96
2023-04-07T07:26:44.649Z,6.00
2023-04-07T07:27:43.946Z,5.99
2023-04-07T07:28:43.864Z,6.14
2023-04-07T07:29:43.739Z,6.18
2023-04-07T07:30:43.896Z,6.30
2023-04-07T07:31:43.727Z,6.43
2023-04-07T07:32:43.849Z,6.48
2023-04-07T07:33:43.749Z,6.56
2023-04-07T07:34:43.711Z,6.64
2023-04-07T07:35:43.772Z,6.69
2023-04-07T07:36:43.667Z,6.77
2023-04-07T07:37:43.733Z,6.76
2023-04-07T07:38:43.650Z,6.77
2023-04-07T07:39:43.646Z,6.77
2023-04-07T07:40:43.708Z,6.74
2023-04-07T07:41:43.666Z,6.80
2023-04-07T07:42:43.719Z,6.84
2023-04-07T07:43:43.844Z,6.88
2023-04-07T07:44:43.656Z,6.95
2023-04-07T07:45:43.577Z,7.03
2023-04-07T07:46:43.862Z,7.06
2023-04-07T07:47:43.666Z,7.10
2023-04-07T07:48:43.572Z,7.17
2023-04-07T07:49:43.522Z,7.12
2023-04-07T07:50:43.525Z,7.12
2023-04-07T07:51:43.712Z,7.06
2023-04-07T07:52:43.513Z,7.02
2023-04-07T07:53:43.525Z,7.02
2023-04-07T07:54:43.487Z,7.12
2023-04-07T07:55:43.473Z,7.12
2023-04-07T07:56:43.477Z,7.20
2023-04-07T07:57:43.514Z,7.17
2023-04-07T07:58:43.521Z,7.12
2023-04-07T07:59:43.440Z,7.05
2023-04-07T08:00:43.441Z,7.10
2023-04-07T08:01:43.576Z,7.20
2023-04-07T08:02:43.481Z,7.23
2023-04-07T08:03:43.530Z,7.28
2023-04-07T08:04:43.497Z,7.30
2023-04-07T08:05:43.407Z,7.34
2023-04-07T08:06:43.362Z,7.37
2023-04-07T08:07:43.367Z,7.39
2023-04-07T08:08:43.343Z,7.35
2023-04-07T08:09:43.430Z,7.40
2023-04-07T08:10:43.375Z,7.32
2023-04-07T08:11:43.324Z,7.31
2023-04-07T08:12:43.325Z,7.25
2023-04-07T08:13:43.275Z,7.32
2023-04-07T08:14:43.276Z,7.32
2023-04-07T08:15:43.400Z,7.37
2023-04-07T08:16:43.388Z,7.49
2023-04-07T08:17:43.402Z,7.48
2023-04-07T08:18:43.277Z,7.46
2023-04-07T08:19:43.207Z,7.45
2023-04-07T08:20:43.287Z,7.50
2023-04-07T08:21:43.252Z,7.60
2023-04-07T08:22:43.207Z,7.52
2023-04-07T08:23:44.170Z,7.48
2023-04-07T08:24:43.167Z,7.49
2023-04-07T08:25:43.211Z,7.50
2023-04-07T08:26:43.161Z,7.30
2023-04-07T08:27:43.181Z,7.13
2023-04-07T08:28:43.125Z,7.12
2023-04-07T08:29:43.147Z,7.13
2023-04-07T08:30:43.173Z,7.20
2023-04-07T08:31:43.128Z,7.17
2023-04-07T08:32:43.113Z,7.27
2023-04-07T08:33:43.083Z,7.43
2023-04-07T08:34:43.052Z,7.39
2023-04-07T08:35:43.064Z,7.30
2023-04-07T08:36:44.033Z,7.34
2023-04-07T08:37:43.022Z,7.37
2023-04-07T08:38:43.028Z,7.42
2023-04-07T08:39:43.068Z,7.40
2023-04-07T08:40:43.025Z,7.46
2023-04-07T08:41:42.973Z,7.35
2023-04-07T08:42:42.978Z,7.37
2023-04-07T08:43:42.952Z,7.27
2023-04-07T08:44:42.954Z,7.21
2023-04-07T08:45:42.951Z,7.13
2023-04-07T08:46:42.975Z,7.13
2023-04-07T08:47:42.976Z,7.06
2023-04-07T08:48:42.905Z,7.02
2023-04-07T08:49:42.985Z,7.03
2023-04-07T08:50:42.907Z,7.03
2023-04-07T08:51:42.882Z,7.12
2023-04-07T08:52:42.896Z,7.10
2023-04-07T08:53:42.889Z,7.20
2023-04-07T08:54:42.895Z,7.32
2023-04-07T08:55:42.878Z,7.32
2023-04-07T08:56:42.873Z,7.31
2023-04-07T08:57:42.832Z,7.37
2023-04-07T08:58:42.835Z,7.40
2023-04-07T08:59:42.842Z,7.42
2023-04-07T09:00:42.862Z,7.39
2023-04-07T09:01:42.873Z,7.37
2023-04-07T09:02:42.844Z,7.39
2023-04-07T09:03:42.848Z,7.43
2023-04-07T09:04:42.791Z,7.37
2023-04-07T09:05:42.759Z,7.30
2023-04-07T09:06:42.727Z,7.24
2023-04-07T09:07:42.713Z,7.21
2023-04-07T09:08:42.733Z,7.13
2023-04-07T09:09:42.793Z,7.13
2023-04-07T09:10:42.714Z,7.06
2023-04-07T09:11:42.688Z,7.07
2023-04-07T09:12:42.646Z,7.06
2023-04-07T09:13:42.664Z,7.05
2023-04-07T09:14:42.661Z,7.03
2023-04-07T09:15:42.645Z,7.03
2023-04-07T09:16:42.632Z,6.99
2023-04-07T09:17:42.678Z,6.98
2023-04-07T09:18:42.592Z,6.98
2023-04-07T09:19:42.625Z,6.97
2023-04-07T09:20:42.604Z,6.97
2023-04-07T09:21:42.586Z,6.95
2023-04-07T09:22:42.691Z,6.97
2023-04-07T09:23:42.561Z,7.03
2023-04-07T09:24:42.531Z,6.95
2023-04-07T09:25:42.532Z,6.94
2023-04-07T09:26:42.549Z,6.97
2023-04-07T09:27:42.486Z,7.06
2023-04-07T09:28:42.647Z,7.15
2023-04-07T09:29:42.494Z,7.15
2023-04-07T09:30:42.499Z,7.05
2023-04-07T09:31:42.566Z,7.06
2023-04-07T09:32:42.490Z,7.07
2023-04-07T09:33:42.448Z,7.06
2023-04-07T09:34:42.433Z,7.02
2023-04-07T09:35:42.519Z,7.02
2023-04-07T09:36:42.420Z,6.97
2023-04-07T09:37:42.414Z,6.97
2023-04-07T09:38:42.396Z,6.98
2023-04-07T09:39:42.377Z,6.97
2023-04-07T09:40:42.363Z,6.95
2023-04-07T09:41:42.455Z,6.92
2023-04-07T09:42:42.348Z,6.89
2023-04-07T09:43:42.343Z,6.71
2023-04-07T09:44:42.327Z,6.73
2023-04-07T09:45:42.422Z,6.69
2023-04-07T09:46:42.450Z,6.69
2023-04-07T09:47:42.354Z,6.71
2023-04-07T09:48:42.266Z,6.71
2023-04-07T09:49:42.320Z,6.79
2023-04-07T09:50:42.283Z,6.84
2023-04-07T09:51:42.242Z,6.91
2023-04-07T09:52:42.216Z,6.94
2023-04-07T09:53:42.242Z,6.98
2023-04-07T09:54:42.298Z,6.95
2023-04-07T09:55:42.223Z,6.99
2023-04-07T09:56:42.206Z,6.95
2023-04-07T09:57:42.186Z,7.02
2023-04-07T09:58:42.183Z,7.03
2023-04-07T09:59:42.221Z,7.10
2023-04-07T10:00:42.204Z,7.07
2023-04-07T10:01:42.332Z,7.13
2023-04-07T10:02:42.252Z,7.10
2023-04-07T10:03:42.205Z,7.05
2023-04-07T10:04:42.097Z,6.97
2023-04-07T10:05:42.290Z,6.95
2023-04-07T10:06:42.098Z,6.89
2023-04-07T10:07:42.841Z,6.91
2023-04-07T10:08:42.074Z,6.85
2023-04-07T10:09:42.109Z,6.84
2023-04-07T10:10:42.104Z,6.77
2023-04-07T10:11:42.019Z,6.80
2023-04-07T10:12:42.057Z,6.84
2023-04-07T10:13:42.097Z,6.84
2023-04-07T10:14:41.981Z,6.80
2023-04-07T10:15:42.119Z,6.79
2023-04-07T10:16:42.051Z,6.84
2023-04-07T10:17:42.086Z,6.85
2023-04-07T10:18:41.991Z,6.85
2023-04-07T10:19:41.973Z,6.85
2023-04-07T10:20:41.958Z,6.81
2023-04-07T10:21:41.988Z,6.80
2023-04-07T10:22:41.928Z,6.84
2023-04-07T10:23:41.916Z,6.91
2023-04-07T10:24:41.912Z,6.92
2023-04-07T10:25:41.910Z,6.89
2023-04-07T10:26:41.981Z,6.88
2023-04-07T10:27:41.866Z,6.99
2023-04-07T10:28:41.847Z,6.98
2023-04-07T10:29:41.853Z,6.94
2023-04-07T10:30:41.910Z,6.91
2023-04-07T10:31:41.852Z,6.88
2023-04-07T10:32:41.842Z,6.95
2023-04-07T10:33:41.809Z,7.05
2023-04-07T10:34:41.813Z,7.06
2023-04-07T10:35:41.845Z,6.91
2023-04-07T10:36:41.770Z,6.99
2023-04-07T10:37:41.799Z,7.02
2023-04-07T10:38:41.769Z,6.99
2023-04-07T10:39:41.722Z,7.02
2023-04-07T10:40:41.746Z,7.07
2023-04-07T10:41:41.735Z,7.09
2023-04-07T10:42:41.730Z,7.12
2023-04-07T10:43:41.952Z,7.13
2023-04-07T10:44:41.707Z,7.06
2023-04-07T10:45:41.689Z,6.69
2023-04-07T10:46:41.761Z,6.62
2023-04-07T10:47:41.679Z,6.56
2023-04-07T10:48:41.703Z,6.56
2023-04-07T10:49:41.610Z,6.67
2023-04-07T10:50:41.646Z,6.76
2023-04-07T10:51:41.730Z,6.80
2023-04-07T10:52:41.682Z,6.85
2023-04-07T10:53:41.661Z,6.95
2023-04-07T10:54:41.618Z,7.07
2023-04-07T10:55:41.585Z,7.09
2023-04-07T10:56:41.591Z,7.12
2023-04-07T10:57:41.553Z,7.10
2023-04-07T10:58:41.532Z,7.03
2023-04-07T10:59:41.561Z,7.02
2023-04-07T11:00:41.580Z,6.99
2023-04-07T11:01:41.589Z,6.91
2023-04-07T11:02:41.887Z,6.80
2023-04-07T11:03:41.533Z,6.88
2023-04-07T11:04:41.529Z,6.88
2023-04-07T11:05:41.494Z,6.79
2023-04-07T11:06:41.456Z,6.81
2023-04-07T11:07:41.436Z,6.77
2023-04-07T11:08:41.455Z,6.87
2023-04-07T11:09:41.469Z,6.87
2023-04-07T11:10:41.428Z,6.92
2023-04-07T11:11:41.419Z,6.95
2023-04-07T11:12:41.369Z,6.84
2023-04-07T11:13:41.396Z,6.48
2023-04-07T11:14:41.393Z,6.41
2023-04-07T11:15:41.388Z,6.46
2023-04-07T11:16:41.352Z,6.51
2023-04-07T11:17:41.403Z,6.61
2023-04-07T11:18:41.354Z,6.70
2023-04-07T11:19:41.355Z,6.88
2023-04-07T11:20:41.329Z,6.99
2023-04-07T11:21:41.329Z,7.25
2023-04-07T11:22:41.292Z,7.42
2023-04-07T11:23:41.286Z,7.61
2023-04-07T11:24:41.237Z,7.82
2023-04-07T11:25:41.279Z,7.71
2023-04-07T11:26:41.250Z,7.63
2023-04-07T11:27:41.298Z,7.25
2023-04-07T11:28:41.220Z,7.17
2023-04-07T11:29:41.285Z,7.24
2023-04-07T11:30:41.222Z,7.28
2023-04-07T11:31:41.223Z,7.31
2023-04-07T11:32:41.208Z,7.24
2023-04-07T11:33:41.156Z,7.25
2023-04-07T11:34:41.180Z,7.31
2023-04-07T11:35:41.198Z,7.24
2023-04-07T11:36:41.142Z,7.09
2023-04-07T11:37:41.117Z,6.92
2023-04-07T11:38:41.134Z,6.77
2023-04-07T11:39:41.240Z,6.71
2023-04-07T11:40:41.845Z,6.61
2023-04-07T11:41:41.143Z,6.56
2023-04-07T11:42:41.078Z,6.55
2023-04-07T11:43:41.058Z,6.58
2023-04-07T11:44:41.093Z,6.56
2023-04-07T11:45:41.090Z,6.54
2023-04-07T11:46:41.111Z,6.64
2023-04-07T11:47:41.054Z,6.62
2023-04-07T11:48:41.049Z,6.54
2023-04-07T11:49:41.021Z,6.46
2023-04-07T11:50:41.011Z,6.40
2023-04-07T11:51:40.984Z,6.46
2023-04-07T11:52:40.973Z,6.49
2023-04-07T11:53:41.019Z,6.51
2023-04-07T11:54:40.922Z,6.56
2023-04-07T11:55:41.063Z,6.55
2023-04-07T11:56:40.922Z,6.59
2023-04-07T11:57:40.938Z,6.56
2023-04-07T11:58:40.914Z,6.51
2023-04-07T11:59:40.896Z,6.48
2023-04-07T12:00:40.918Z,6.46
2023-04-07T12:01:40.960Z,6.51
2023-04-07T12:02:40.907Z,6.52
2023-04-07T12:03:41.031Z,6.59
2023-04-07T12:04:41.247Z,6.51
2023-04-07T12:05:40.844Z,6.44
2023-04-07T12:06:40.798Z,6.43
2023-04-07T12:07:40.805Z,6.44
2023-04-07T12:08:40.860Z,6.48
2023-04-07T12:09:40.779Z,6.49
2023-04-07T12:10:40.817Z,6.46
2023-04-07T12:11:40.776Z,6.54
2023-04-07T12:12:40.831Z,6.52
2023-04-07T12:13:40.778Z,6.37
2023-04-07T12:14:40.804Z,6.31
2023-04-07T12:15:40.723Z,6.31
2023-04-07T12:16:40.776Z,6.21
2023-04-07T12:17:40.759Z,6.14
2023-04-07T12:18:40.712Z,6.08
2023-04-07T12:19:40.706Z,6.12
2023-04-07T12:20:40.731Z,6.18
2023-04-07T12:21:40.683Z,6.19
2023-04-07T12:22:40.693Z,6.30
2023-04-07T12:23:40.694Z,6.22
2023-04-07T12:24:40.708Z,6.21
2023-04-07T12:25:40.647Z,6.27
2023-04-07T12:26:40.694Z,6.31
2023-04-07T12:27:43.666Z,6.44
2023-04-07T12:28:40.659Z,6.51
2023-04-07T12:29:40.596Z,6.51
2023-04-07T12:30:40.621Z,6.52
2023-04-07T12:31:40.611Z,6.58
2023-04-07T12:32:40.672Z,6.54
2023-04-07T12:33:40.687Z,6.51
2023-04-07T12:34:40.593Z,6.52
2023-04-07T12:35:40.655Z,6.62
2023-04-07T12:36:40.552Z,6.67
2023-04-07T12:37:40.568Z,6.76
2023-04-07T12:38:40.585Z,6.80
2023-04-07T12:39:40.505Z,6.87
2023-04-07T12:40:40.456Z,6.94
2023-04-07T12:41:40.472Z,6.92
2023-04-07T12:42:40.426Z,6.87
2023-04-07T12:43:40.497Z,6.77
2023-04-07T12:44:40.452Z,6.70
2023-04-07T12:45:40.470Z,6.66
2023-04-07T12:46:40.449Z,6.69
2023-04-07T12:47:40.460Z,6.74
2023-04-07T12:48:40.427Z,6.64
2023-04-07T12:49:40.375Z,6.33
2023-04-07T12:50:40.581Z,6.31
2023-04-07T12:51:40.496Z,6.36
2023-04-07T12:52:40.397Z,6.38
2023-04-07T12:53:40.342Z,6.37
2023-04-07T12:54:40.365Z,6.37
2023-04-07T12:55:40.397Z,6.43
2023-04-07T12:56:40.361Z,6.56
2023-04-07T12:57:40.345Z,6.74
2023-04-07T12:58:40.263Z,6.88
2023-04-07T12:59:40.348Z,6.98
2023-04-07T13:00:40.255Z,6.98
2023-04-07T13:01:40.298Z,6.98
2023-04-07T13:02:40.399Z,7.03
2023-04-07T13:03:40.540Z,6.98
2023-04-07T13:04:40.601Z,6.84
2023-04-07T13:05:40.222Z,6.84
2023-04-07T13:06:40.254Z,6.79
2023-04-07T13:07:40.181Z,6.76
2023-04-07T13:08:40.174Z,6.73
2023-04-07T13:09:40.292Z,6.71
2023-04-07T13:10:40.179Z,6.66
2023-04-07T13:11:40.184Z,6.59
2023-04-07T13:12:40.164Z,6.48
2023-04-07T13:13:40.126Z,6.51
2023-04-07T13:14:52.984Z,6.58
2023-04-07T13:15:41.127Z,6.59
2023-04-07T13:16:40.190Z,6.64
2023-04-07T13:17:40.155Z,6.73
2023-04-07T13:18:40.104Z,6.76